Time;durP1;ratioP1;P1;durP2;ratioP2;P2;SDS_P1;SDS_P2;PMS_P1;PMS_P2;Temp;Humidity;BMP_temperature;BMP_pressure;BME280_temperature;BME280_humidity;BME280_pressure;Samples;Min_cycle;Max_cycle;Signal;HPM_P1;HPM_P2
2021/09/28 00:02:25;;;;;;;32.83;20.00;;;17.40;99.90;;;;;;4982927;28;20034;-64
2021/09/28 00:04:50;;;;;;;32.00;18.17;;;17.10;99.90;;;;;;4982730;28;20038;-64
2021/09/28 00:07:16;;;;;;;32.60;19.63;;;17.20;99.90;;;;;;4982902;28;20042;-64
2021/09/28 00:09:41;;;;;;;29.23;18.83;;;17.20;99.90;;;;;;4983311;28;20590;-64
2021/09/28 00:12:07;;;;;;;31.75;18.30;;;17.30;99.90;;;;;;4983317;28;20565;-64
2021/09/28 00:14:32;;;;;;;28.92;18.52;;;17.30;99.90;;;;;;4981691;28;20546;-64
2021/09/28 00:16:58;;;;;;;29.10;18.60;;;17.20;99.90;;;;;;4982329;28;20034;-64
2021/09/28 00:19:23;;;;;;;31.85;20.08;;;17.30;99.90;;;;;;4983611;28;20568;-64
2021/09/28 00:21:49;;;;;;;30.13;18.25;;;17.20;99.90;;;;;;4983222;28;20812;-64
2021/09/28 00:24:15;;;;;;;29.90;18.80;;;17.20;99.90;;;;;;4983445;28;20034;-64
2021/09/28 00:26:40;;;;;;;34.10;19.20;;;17.10;99.90;;;;;;4983240;28;20045;-64
2021/09/28 00:29:06;;;;;;;33.05;20.27;;;17.10;99.90;;;;;;4965016;28;20479;-64
2021/09/28 00:31:31;;;;;;;31.10;18.75;;;17.10;99.90;;;;;;4982967;28;20114;-64
2021/09/28 00:33:57;;;;;;;33.05;19.55;;;17.10;99.90;;;;;;4982791;28;20030;-64
2021/09/28 00:36:23;;;;;;;34.92;20.67;;;17.00;99.90;;;;;;4983136;28;20077;-64
2021/09/28 00:38:48;;;;;;;31.95;19.70;;;17.00;99.90;;;;;;4981720;28;20143;-63
2021/09/28 00:41:13;;;;;;;28.00;17.48;;;16.90;99.90;;;;;;4982600;28;20030;-63
2021/09/28 00:43:39;;;;;;;31.83;18.60;;;16.90;99.90;;;;;;4982807;28;20101;-63
2021/09/28 00:46:04;;;;;;;32.67;19.05;;;17.00;99.90;;;;;;4982201;28;20773;-63
2021/09/28 00:48:30;;;;;;;33.67;20.75;;;17.50;99.90;;;;;;4982564;28;20085;-63
2021/09/28 00:50:55;;;;;;;36.25;19.17;;;16.70;99.90;;;;;;4982608;28;20768;-63
2021/09/28 00:53:21;;;;;;;32.40;18.70;;;16.70;99.90;;;;;;4982305;28;20030;-63
2021/09/28 00:55:46;;;;;;;31.33;18.42;;;16.60;99.90;;;;;;4982572;28;20485;-64
2021/09/28 00:58:12;;;;;;;37.00;20.88;;;16.60;99.90;;;;;;4980370;28;20034;-64
2021/09/28 01:00:38;;;;;;;34.38;19.27;;;16.60;99.90;;;;;;4982375;28;20042;-63
2021/09/28 01:03:03;;;;;;;33.80;18.95;;;16.50;99.90;;;;;;4981490;28;20434;-63
2021/09/28 01:05:29;;;;;;;38.88;19.83;;;16.50;99.90;;;;;;4981741;28;20120;-64
2021/09/28 01:07:54;;;;;;;32.53;17.73;;;16.50;99.90;;;;;;4981911;28;20049;-64
2021/09/28 01:10:20;;;;;;;31.20;18.33;;;16.50;99.90;;;;;;4980372;28;20607;-63
2021/09/28 01:12:45;;;;;;;31.35;18.40;;;16.50;99.90;;;;;;4980192;28;20076;-63
2021/09/28 01:15:11;;;;;;;36.53;18.80;;;16.40;99.90;;;;;;4981934;28;20030;-63
2021/09/28 01:17:36;;;;;;;31.20;19.48;;;16.40;99.90;;;;;;4981552;28;20054;-63
2021/09/28 01:20:02;;;;;;;30.75;17.85;;;16.50;99.90;;;;;;4982152;28;20038;-64
2021/09/28 01:22:27;;;;;;;34.00;18.50;;;16.50;99.90;;;;;;4981238;28;20770;-64
2021/09/28 01:24:53;;;;;;;28.58;16.42;;;;;;;;;;4981972;28;20038;-64
2021/09/28 01:27:19;;;;;;;27.27;16.13;;;;;;;;;;4980405;28;20038;-63
2021/09/28 01:29:45;;;;;;;27.95;16.92;;;16.90;99.90;;;;;;4981638;28;20146;-63
2021/09/28 01:32:10;;;;;;;24.08;15.90;;;16.70;99.90;;;;;;4981864;28;20387;-64
2021/09/28 01:34:36;;;;;;;29.27;15.60;;;16.70;99.90;;;;;;4980796;28;20038;-63
2021/09/28 01:37:01;;;;;;;24.38;15.18;;;16.80;99.90;;;;;;4981744;28;20038;-63
2021/09/28 01:39:27;;;;;;;22.77;14.93;;;16.90;99.90;;;;;;4981577;28;20035;-63
2021/09/28 01:41:53;;;;;;;26.55;15.43;;;16.70;99.90;;;;;;4981416;28;20085;-64
2021/09/28 01:44:18;;;;;;;22.65;14.65;;;16.70;99.90;;;;;;4981491;28;20034;-63
2021/09/28 01:46:44;;;;;;;24.23;15.73;;;16.70;99.90;;;;;;4980936;28;20036;-64
2021/09/28 01:49:10;;;;;;;23.00;13.75;;;;;;;;;;4981207;28;20443;-63
2021/09/28 01:51:36;;;;;;;21.27;14.10;;;;;;;;;;4980655;28;20033;-64
2021/09/28 01:54:02;;;;;;;21.85;13.38;;;;;;;;;;4981293;28;20528;-63
2021/09/28 01:56:28;;;;;;;25.10;13.95;;;;;;;;;;4981272;28;20038;-63
2021/09/28 01:58:54;;;;;;;23.42;13.38;;;;;;;;;;4980323;28;20491;-64
2021/09/28 02:01:20;;;;;;;23.60;14.05;;;;;;;;;;4981439;28;20118;-63
2021/09/28 02:03:46;;;;;;;22.10;13.27;;;;;;;;;;4980670;28;20034;-64
2021/09/28 02:06:12;;;;;;;23.70;13.00;;;;;;;;;;4981074;28;20071;-63
2021/09/28 02:08:38;;;;;;;20.95;12.75;;;;;;;;;;4980885;28;20726;-63
2021/09/28 02:11:04;;;;;;;22.60;12.13;;;;;;;;;;4980207;28;20034;-63
2021/09/28 02:13:30;;;;;;;16.90;11.50;;;;;;;;;;4980495;28;20048;-63
2021/09/28 02:15:56;;;;;;;19.90;12.32;;;;;;;;;;4980176;28;20116;-63
2021/09/28 02:18:22;;;;;;;23.30;12.38;;;;;;;;;;4980445;28;20784;-64
2021/09/28 02:20:48;;;;;;;21.67;11.15;;;;;;;;;;4979232;28;20148;-72
2021/09/28 02:23:14;;;;;;;16.50;11.05;;;16.40;99.90;;;;;;4980549;28;20061;-72
2021/09/28 02:25:40;;;;;;;18.40;11.10;;;;;;;;;;4979290;28;20514;-72
2021/09/28 02:28:06;;;;;;;19.52;11.88;;;;;;;;;;4979354;28;20572;-72
2021/09/28 02:30:32;;;;;;;16.52;10.73;;;;;;;;;;4980308;28;20042;-72
2021/09/28 02:32:58;;;;;;;15.40;10.90;;;;;;;;;;4980501;28;20030;-72
2021/09/28 02:35:24;;;;;;;17.73;11.07;;;;;;;;;;4979940;28;20086;-72
2021/09/28 02:37:50;;;;;;;19.80;10.98;;;;;;;;;;4980305;28;20155;-72
2021/09/28 02:40:16;;;;;;;17.58;10.68;;;;;;;;;;4978970;28;20509;-72
2021/09/28 02:42:43;;;;;;;15.45;9.57;;;;;;;;;;4979353;28;20042;-72
2021/09/28 02:45:09;;;;;;;19.50;10.43;;;;;;;;;;4976722;28;20418;-72
2021/09/28 02:47:35;;;;;;;14.70;9.10;;;;;;;;;;4980024;28;20061;-73
2021/09/28 02:50:01;;;;;;;16.38;9.45;;;;;;;;;;4980925;28;20516;-72
2021/09/28 02:52:27;;;;;;;14.20;8.00;;;;;;;;;;4980734;28;20026;-72
2021/09/28 02:54:53;;;;;;;17.75;8.20;;;;;;;;;;4979049;28;20148;-73
2021/09/28 02:57:19;;;;;;;14.73;7.47;;;;;;;;;;4980717;28;20125;-72
2021/09/28 02:59:45;;;;;;;10.60;6.82;;;;;;;;;;4980652;28;20061;-72
2021/09/28 03:02:11;;;;;;;9.90;6.70;;;;;;;;;;4981064;28;20038;-72
2021/09/28 03:04:37;;;;;;;11.27;6.03;;;;;;;;;;4980439;28;20038;-72
2021/09/28 03:07:03;;;;;;;10.85;5.90;;;;;;;;;;4980251;28;20034;-72
2021/09/28 03:09:29;;;;;;;12.27;5.53;;;;;;;;;;4980850;28;20511;-72
2021/09/28 03:11:55;;;;;;;6.55;4.40;;;;;;;;;;4980375;28;20537;-72
2021/09/28 03:14:22;;;;;;;6.97;3.83;;;;;;;;;;4980739;28;20042;-72
2021/09/28 03:16:48;;;;;;;9.23;3.95;;;;;;;;;;4979883;28;20042;-72
2021/09/28 03:19:15;;;;;;;6.43;4.00;;;;;;;;;;4980300;28;20075;-72
2021/09/28 03:21:41;;;;;;;8.50;3.95;;;;;;;;;;4978878;28;20100;-72
2021/09/28 03:24:07;;;;;;;5.95;3.92;;;16.80;99.90;;;;;;4980080;28;20030;-72
2021/09/28 03:26:32;;;;;;;5.90;3.78;;;16.20;99.90;;;;;;4982450;28;20038;-72
2021/09/28 03:28:58;;;;;;;8.27;3.50;;;16.10;99.90;;;;;;4984089;28;20030;-72
2021/09/28 03:31:23;;;;;;;7.53;3.63;;;16.20;99.90;;;;;;4984590;28;20045;-72
2021/09/28 03:33:49;;;;;;;7.43;3.15;;;15.70;99.90;;;;;;4982449;28;20088;-72
2021/09/28 03:36:14;;;;;;;4.63;3.22;;;;;;;;;;4983867;28;20118;-72
2021/09/28 03:38:40;;;;;;;4.00;2.70;;;;;;;;;;4983975;28;20065;-72
2021/09/28 03:41:06;;;;;;;4.70;2.40;;;;;;;;;;4983953;28;20041;-72
2021/09/28 03:43:32;;;;;;;9.00;2.45;;;16.30;99.90;;;;;;4982793;28;20035;-72
2021/09/28 03:45:57;;;;;;;3.30;2.53;;;15.60;99.90;;;;;;4984157;28;20046;-71
2021/09/28 03:48:23;;;;;;;3.83;2.25;;;16.00;99.90;;;;;;4983593;28;20034;-72
2021/09/28 03:50:48;;;;;;;8.27;2.67;;;15.30;99.90;;;;;;4983971;28;20031;-72
2021/09/28 03:53:14;;;;;;;9.55;2.78;;;;;;;;;;4983820;28;20585;-72
2021/09/28 03:55:40;;;;;;;3.78;2.20;;;;;;;;;;4982503;28;20136;-73
2021/09/28 03:58:07;;;;;;;9.48;2.65;;;15.50;99.90;;;;;;4981339;28;20829;-72
2021/09/28 04:00:34;;;;;;;2.03;1.50;;;;;;;;;;4983574;28;20125;-72
2021/09/28 04:03:00;;;;;;;2.97;1.77;;;;;;;;;;4983518;28;20038;-72
2021/09/28 04:05:26;;;;;;;3.33;1.58;;;;;;;;;;4982947;28;20269;-72
2021/09/28 04:07:52;;;;;;;4.10;1.73;;;;;;;;;;4983168;28;20041;-72
2021/09/28 04:10:18;;;;;;;8.45;1.95;;;;;;;;;;4983550;28;20034;-72
2021/09/28 04:12:44;;;;;;;2.33;1.67;;;;;;;;;;4983010;28;20034;-72
2021/09/28 04:15:10;;;;;;;4.40;1.75;;;;;;;;;;4995821;28;20113;-72
2021/09/28 04:17:36;;;;;;;3.88;1.50;;;;;;;;;;4982669;28;20781;-72
2021/09/28 04:20:01;;;;;;;5.13;1.65;;;16.10;99.90;;;;;;4983621;28;20034;-72
2021/09/28 04:22:27;;;;;;;4.03;1.52;;;16.30;99.90;;;;;;4983541;28;20066;-73
2021/09/28 04:24:53;;;;;;;2.63;1.40;;;;;;;;;;4977906;28;20501;-72
2021/09/28 04:27:19;;;;;;;5.20;1.73;;;;;;;;;;4978355;28;20082;-72
2021/09/28 04:29:46;;;;;;;3.08;1.35;;;;;;;;;;4982605;28;20170;-72
2021/09/28 04:32:12;;;;;;;3.05;1.30;;;;;;;;;;4983298;28;20803;-72
2021/09/28 04:34:38;;;;;;;3.95;1.20;;;;;;;;;;4981618;28;20053;-72
2021/09/28 04:37:04;;;;;;;3.53;1.50;;;15.70;99.90;;;;;;4981890;28;20558;-72
2021/09/28 04:39:29;;;;;;;2.85;1.58;;;;;;;;;;4982381;28;20042;-72
2021/09/28 04:41:55;;;;;;;1.50;1.10;;;15.80;99.90;;;;;;4982814;28;20048;-72
2021/09/28 04:44:21;;;;;;;6.35;1.70;;;;;;;;;;4982857;28;20062;-72
2021/09/28 04:46:47;;;;;;;4.20;1.50;;;;;;;;;;4982655;28;20783;-72
2021/09/28 04:49:12;;;;;;;2.90;1.38;;;15.70;99.90;;;;;;4964551;28;20042;-72
2021/09/28 04:51:38;;;;;;;2.63;1.50;;;16.10;99.90;;;;;;4983107;28;20038;-72
2021/09/28 04:54:04;;;;;;;5.15;1.70;;;;;;;;;;4982549;28;20486;-72
2021/09/28 04:56:29;;;;;;;3.13;1.40;;;15.90;99.90;;;;;;4979513;28;20062;-72
2021/09/28 04:58:55;;;;;;;2.72;1.30;;;15.90;99.90;;;;;;4980139;28;20483;-72
2021/09/28 05:01:21;;;;;;;7.43;1.50;;;;;;;;;;4980431;28;20045;-72
2021/09/28 05:03:47;;;;;;;7.20;1.52;;;;;;;;;;4981014;28;20030;-72
2021/09/28 05:06:13;;;;;;;1.80;1.25;;;;;;;;;;4982623;28;20034;-72
2021/09/28 05:08:39;;;;;;;5.90;1.52;;;15.00;99.90;;;;;;4981596;28;20030;-72
2021/09/28 05:11:05;;;;;;;4.47;1.38;;;;;;;;;;4979061;28;20133;-72
2021/09/28 05:13:31;;;;;;;3.10;1.45;;;;;;;;;;4981719;28;20049;-72
2021/09/28 05:15:57;;;;;;;3.42;1.55;;;;;;;;;;4982367;28;20062;-72
2021/09/28 05:18:22;;;;;;;3.95;1.45;;;;;;;;;;4981857;28;20538;-72
2021/09/28 05:20:48;;;;;;;7.43;1.45;;;;;;;;;;4981666;28;20805;-72
2021/09/28 05:23:14;;;;;;;3.95;1.50;;;;;;;;;;4981971;28;20746;-72
2021/09/28 05:25:40;;;;;;;3.55;1.50;;;;;;;;;;4981306;28;20108;-72
2021/09/28 05:28:06;;;;;;;4.88;1.55;;;;;;;;;;4980183;28;20031;-72
2021/09/28 05:30:32;;;;;;;6.43;2.25;;;15.60;99.90;;;;;;4980131;28;20500;-72
2021/09/28 05:32:58;;;;;;;4.35;1.17;;;;;;;;;;4981336;28;20133;-71
2021/09/28 05:35:24;;;;;;;1.65;1.10;;;;;;;;;;4981736;28;20131;-71
2021/09/28 05:37:50;;;;;;;4.32;1.40;;;;;;;;;;4979295;28;20084;-69
2021/09/28 05:40:16;;;;;;;3.97;1.45;;;;;;;;;;4981755;28;20182;-69
2021/09/28 05:42:42;;;;;;;7.32;1.77;;;;;;;;;;4981719;28;20038;-68
2021/09/28 05:45:08;;;;;;;3.20;1.50;;;;;;;;;;4980877;28;20033;-69
2021/09/28 05:47:34;;;;;;;3.78;1.50;;;;;;;;;;4981009;28;20537;-66
2021/09/28 05:50:00;;;;;;;9.23;1.80;;;;;;;;;;4980917;28;20034;-66
2021/09/28 05:52:26;;;;;;;5.18;1.75;;;;;;;;;;4981228;28;20076;-67
2021/09/28 05:54:52;;;;;;;5.85;1.40;;;;;;;;;;4980454;28;20092;-67
2021/09/28 05:57:18;;;;;;;5.15;1.50;;;;;;;;;;4979918;28;20434;-66
2021/09/28 05:59:44;;;;;;;6.18;1.60;;;;;;;;;;4981193;28;20041;-67
2021/09/28 06:02:10;;;;;;;5.15;1.80;;;;;;;;;;4979141;28;20132;-66
2021/09/28 06:04:35;;;;;;;5.45;1.70;;;;;;;;;;4981211;28;20781;-66
2021/09/28 06:07:01;;;;;;;2.30;1.80;;;;;;;;;;4980149;28;20045;-66
2021/09/28 06:09:27;;;;;;;5.10;1.70;;;;;;;;;;4980569;28;20038;-67
2021/09/28 06:11:53;;;;;;;5.85;2.47;;;;;;;;;;4981250;28;20360;-66
2021/09/28 06:14:19;;;;;;;13.00;3.92;;;;;;;;;;4980319;28;20057;-67
2021/09/28 06:16:45;;;;;;;4.57;1.67;;;;;;;;;;4980868;28;20045;-67
2021/09/28 06:19:11;;;;;;;6.93;3.67;;;;;;;;;;4980139;28;20045;-67
2021/09/28 06:21:37;;;;;;;6.75;1.55;;;;;;;;;;4980134;28;20033;-67
2021/09/28 06:24:03;;;;;;;5.47;1.50;;;;;;;;;;4980884;28;20093;-68
2021/09/28 06:26:29;;;;;;;6.90;1.70;;;;;;;;;;4980440;28;20050;-67
2021/09/28 06:28:55;;;;;;;3.70;1.58;;;;;;;;;;4980958;28;20033;-67
2021/09/28 06:31:21;;;;;;;4.32;1.30;;;;;;;;;;4981136;28;20030;-67
2021/09/28 06:33:47;;;;;;;3.95;1.30;;;;;;;;;;4979749;28;20026;-68
2021/09/28 06:36:13;;;;;;;5.93;1.30;;;;;;;;;;4981405;28;20436;-67
2021/09/28 06:38:39;;;;;;;7.93;1.85;;;;;;;;;;4978673;28;20528;-67
2021/09/28 06:41:05;;;;;;;4.60;1.70;;;;;;;;;;4980826;28;20040;-67
2021/09/28 06:43:31;;;;;;;6.32;1.40;;;;;;;;;;4980008;28;20035;-67
2021/09/28 06:45:59;;;;;;;6.05;1.55;;;;;;;;;;4979862;28;20773;-67
2021/09/28 06:48:24;;;;;;;7.18;2.10;;;;;;;;;;4981224;28;20034;-67
2021/09/28 06:50:50;;;;;;;4.97;2.00;;;15.90;99.90;;;;;;4980424;28;20034;-67
2021/09/28 06:53:16;;;;;;;3.28;1.40;;;;;;;;;;4981016;28;20411;-67
2021/09/28 06:55:42;;;;;;;7.60;1.95;;;;;;;;;;4980136;28;20066;-66
2021/09/28 06:58:08;;;;;;;4.80;1.77;;;;;;;;;;4979701;28;20157;-67
2021/09/28 07:00:37;;;;;;;4.43;1.50;;;;;;;;;;4979436;28;20057;-67
2021/09/28 07:03:03;;;;;;;5.93;2.67;;;;;;;;;;4976162;28;20085;-67
2021/09/28 07:05:29;;;;;;;7.15;3.83;;;;;;;;;;4978634;28;20131;-67
2021/09/28 07:07:55;;;;;;;4.85;1.75;;;;;;;;;;4976992;28;20390;-67
2021/09/28 07:10:21;;;;;;;8.30;2.80;;;;;;;;;;4978242;28;20128;-67
2021/09/28 07:12:47;;;;;;;2.83;1.67;;;;;;;;;;4979077;28;20415;-67
2021/09/28 07:15:13;;;;;;;5.55;2.08;;;;;;;;;;4979733;28;20032;-67
2021/09/28 07:17:39;;;;;;;4.97;2.10;;;;;;;;;;4980438;28;20482;-68
2021/09/28 07:20:05;;;;;;;7.85;1.60;;;;;;;;;;4978794;28;20065;-68
2021/09/28 07:22:31;;;;;;;4.40;1.75;;;;;;;;;;4980906;28;20120;-68
2021/09/28 07:24:57;;;;;;;7.97;2.03;;;;;;;;;;4979625;28;20034;-68
2021/09/28 07:27:23;;;;;;;3.70;1.48;;;;;;;;;;4980267;28;20053;-68
2021/09/28 07:29:49;;;;;;;5.82;2.00;;;;;;;;;;4981165;28;20026;-69
2021/09/28 07:32:15;;;;;;;6.45;1.70;;;;;;;;;;4980283;28;20042;-67
2021/09/28 07:34:41;;;;;;;4.80;1.52;;;;;;;;;;4980436;28;20035;-67
2021/09/28 07:37:07;;;;;;;11.30;4.40;;;;;;;;;;4980103;28;20049;-68
2021/09/28 07:39:33;;;;;;;9.13;3.08;;;;;;;;;;4979367;28;20038;-67
2021/09/28 07:41:59;;;;;;;6.60;2.00;;;;;;;;;;4980290;28;20046;-68
2021/09/28 07:44:25;;;;;;;6.75;2.10;;;;;;;;;;4979777;28;20092;-68
2021/09/28 07:46:51;;;;;;;9.63;2.58;;;;;;;;;;4979902;28;20042;-67
2021/09/28 07:49:17;;;;;;;10.95;2.25;;;;;;;;;;4978525;28;20030;-68
2021/09/28 07:51:43;;;;;;;8.65;2.13;;;;;;;;;;4979976;28;20070;-69
2021/09/28 07:54:09;;;;;;;7.18;2.00;;;;;;;;;;4980360;28;20106;-67
2021/09/28 07:56:35;;;;;;;11.38;2.10;;;;;;;;;;4979817;28;20046;-67
2021/09/28 07:59:07;;;;;;;7.85;2.10;;;;;;;;;;4979935;28;20672;-68
2021/09/28 08:01:33;;;;;;;7.18;2.17;;;;;;;;;;4977696;28;20052;-68
2021/09/28 08:03:59;;;;;;;9.00;2.22;;;;;;;;;;4978583;28;20034;-69
2021/09/28 08:06:25;;;;;;;7.75;2.90;;;;;;;;;;4974562;28;20623;-71
2021/09/28 08:08:51;;;;;;;9.75;2.35;;;;;;;;;;4978188;28;20048;-69
2021/09/28 08:11:17;;;;;;;6.75;2.22;;;;;;;;;;4977763;28;20030;-69
2021/09/28 08:13:44;;;;;;;9.90;2.28;;;;;;;;;;4982857;28;20039;-69
2021/09/28 08:16:10;;;;;;;8.27;3.00;;;;;;;;;;4979891;28;20116;-69
2021/09/28 08:18:36;;;;;;;7.43;1.83;;;;;;;;;;4983538;28;20039;-69
2021/09/28 08:21:02;;;;;;;8.85;2.10;;;;;;;;;;4981333;28;20062;-70
2021/09/28 08:23:28;;;;;;;8.48;3.17;;;;;;;;;;4966035;28;20486;-69
2021/09/28 08:31:05;;;;;;;9.40;2.45;;;;;;;;;;4982268;28;20383;-68
2021/09/28 08:33:31;;;;;;;8.85;2.47;;;;;;;;;;4982855;28;20095;-69
2021/09/28 08:35:56;;;;;;;11.80;2.88;;;16.60;99.90;;;;;;4983105;28;20162;-69
2021/09/28 08:38:22;;;;;;;11.65;2.95;;;;;;;;;;4979279;28;20043;-69
2021/09/28 08:40:48;;;;;;;13.02;2.35;;;;;;;;;;4978974;28;20118;-69
2021/09/28 08:43:14;;;;;;;8.52;3.17;;;;;;;;;;4981584;28;20026;-68
2021/09/28 08:45:40;;;;;;;13.80;6.40;;;;;;;;;;4980538;28;20066;-68
2021/09/28 08:48:06;;;;;;;6.00;2.60;;;;;;;;;;4977042;28;20088;-68
2021/09/28 08:50:32;;;;;;;8.25;2.65;;;;;;;;;;4982431;28;20030;-69
2021/09/28 08:52:59;;;;;;;12.70;2.80;;;;;;;;;;4980563;28;20739;-69
2021/09/28 08:55:25;;;;;;;10.32;3.08;;;;;;;;;;4982636;28;20410;-69
2021/09/28 08:57:51;;;;;;;13.48;2.78;;;;;;;;;;4981705;28;20030;-73
2021/09/28 09:00:17;;;;;;;13.60;2.45;;;;;;;;;;4982423;28;20034;-69
2021/09/28 09:02:43;;;;;;;5.57;2.33;;;;;;;;;;4982769;28;20035;-69
2021/09/28 09:05:17;;;;;;;9.32;2.40;;;;;;;;;;4980550;28;20177;-70
2021/09/28 09:07:43;;;;;;;8.60;2.22;;;;;;;;;;4963032;28;20038;-70
2021/09/28 09:10:09;;;;;;;7.28;2.50;;;;;;;;;;4980490;28;20711;-70
2021/09/28 09:12:35;;;;;;;9.30;2.50;;;;;;;;;;4982870;28;20105;-70
2021/09/28 09:15:01;;;;;;;9.73;2.28;;;;;;;;;;4982635;28;20045;-70
2021/09/28 09:17:27;;;;;;;12.38;2.30;;;;;;;;;;4963721;28;20038;-70
2021/09/28 09:19:53;;;;;;;6.93;2.38;;;;;;;;;;4981987;28;20038;-70
2021/09/28 09:22:18;;;;;;;8.30;2.10;;;;;;;;;;4981573;28;20041;-70
2021/09/28 09:24:44;;;;;;;12.15;2.25;;;;;;;;;;4961635;28;20482;-69
2021/09/28 09:27:11;;;;;;;13.13;2.85;;;;;;;;;;4979621;28;20048;-69
2021/09/28 09:29:37;;;;;;;14.80;3.38;;;;;;;;;;4978317;28;20038;-69
2021/09/28 09:32:03;;;;;;;11.02;2.28;;;;;;;;;;4981350;28;20502;-69
2021/09/28 09:34:29;;;;;;;4.88;1.70;;;17.00;99.90;;;;;;4979038;28;20135;-69
2021/09/28 09:36:55;;;;;;;10.20;2.40;;;;;;;;;;4981227;28;20783;-70
2021/09/28 09:39:21;;;;;;;11.18;2.70;;;16.70;99.90;;;;;;4980403;28;20892;-70
2021/09/28 09:41:47;;;;;;;10.85;3.13;;;;;;;;;;4975403;28;20022;-69
2021/09/28 09:44:13;;;;;;;12.70;2.50;;;;;;;;;;4972814;28;20096;-69
2021/09/28 09:46:40;;;;;;;14.32;2.83;;;;;;;;;;4972543;28;20077;-70
2021/09/28 09:49:09;;;;;;;10.25;2.25;;;;;;;;;;4977766;28;20438;-69
2021/09/28 09:51:35;;;;;;;12.60;3.72;;;16.70;99.90;;;;;;4979053;28;20097;-70
2021/09/28 09:54:01;;;;;;;10.65;2.03;;;;;;;;;;4976393;28;20034;-70
2021/09/28 09:56:27;;;;;;;10.00;2.20;;;;;;;;;;4980184;28;20038;-70
2021/09/28 09:58:53;;;;;;;8.50;2.10;;;;;;;;;;4975401;28;20044;-70
2021/09/28 10:01:19;;;;;;;13.65;2.60;;;16.90;99.90;;;;;;4978961;28;20033;-69
2021/09/28 10:03:45;;;;;;;9.02;1.98;;;;;;;;;;4981092;28;20050;-69
2021/09/28 10:06:11;;;;;;;13.57;2.28;;;;;;;;;;4977973;28;20042;-69
2021/09/28 10:08:36;;;;;;;9.60;2.00;;;17.30;99.90;;;;;;4978933;28;20081;-69
2021/09/28 10:11:02;;;;;;;9.48;2.25;;;;;;;;;;4976657;28;20027;-69
2021/09/28 10:13:28;;;;;;;14.32;3.80;;;;;;;;;;4980459;28;20034;-69
2021/09/28 10:15:54;;;;;;;9.52;2.55;;;;;;;;;;4980835;28;20150;-69
2021/09/28 10:18:20;;;;;;;11.55;2.08;;;;;;;;;;4980188;28;20030;-69
2021/09/28 10:20:48;;;;;;;84.03;7.65;;;;;;;;;;4979888;28;20034;-69
2021/09/28 10:23:14;;;;;;;113.95;12.43;;;18.40;99.90;;;;;;4979983;28;20042;-70
2021/09/28 10:25:41;;;;;;;41.13;4.82;;;;;;;;;;4978509;28;20026;-68
2021/09/28 10:28:07;;;;;;;15.45;2.42;;;;;;;;;;4980230;28;20066;-68
2021/09/28 10:30:43;;;;;;;11.25;2.22;;;;;;;;;;4964126;28;20038;-68
2021/09/28 10:33:09;;;;;;;9.13;1.85;;;;;;;;;;4979794;28;20038;-69
2021/09/28 10:35:34;;;;;;;9.13;2.10;;;;;;;;;;4979763;28;20026;-68
2021/09/28 10:38:00;;;;;;;18.20;2.55;;;;;;;;;;4979822;28;20564;-67
2021/09/28 10:40:26;;;;;;;13.43;2.15;;;18.70;99.90;;;;;;4979987;28;20110;-68
2021/09/28 10:42:52;;;;;;;7.65;2.10;;;;;;;;;;4978561;28;20035;-68
2021/09/28 10:45:18;;;;;;;7.25;1.33;;;;;;;;;;4978788;28;20038;-72
2021/09/28 10:47:45;;;;;;;11.73;1.70;;;;;;;;;;4979549;28;20116;-71
2021/09/28 10:50:10;;;;;;;13.27;1.67;;;18.80;99.90;;;;;;4980061;28;20046;-71
2021/09/28 10:52:36;;;;;;;11.48;1.65;;;;;;;;;;4978970;28;20092;-71
2021/09/28 10:55:02;;;;;;;11.30;1.75;;;18.40;99.90;;;;;;4980333;28;20513;-71
2021/09/28 10:57:28;;;;;;;10.60;1.67;;;19.60;99.90;;;;;;4980593;28;20035;-71
2021/09/28 10:59:53;;;;;;;15.05;2.40;;;19.00;99.90;;;;;;4980039;28;20023;-71
2021/09/28 11:02:19;;;;;;;9.63;1.75;;;19.40;99.90;;;;;;4979944;28;20030;-71
2021/09/28 11:04:45;;;;;;;7.10;1.50;;;;;;;;;;4980478;28;20041;-71
2021/09/28 11:07:13;;;;;;;10.85;2.10;;;;;;;;;;4980504;28;20106;-71
2021/09/28 11:09:39;;;;;;;11.75;2.35;;;;;;;;;;4981077;28;20030;-71
2021/09/28 11:12:06;;;;;;;10.80;1.85;;;;;;;;;;4979185;28;20057;-72
2021/09/28 11:14:32;;;;;;;6.05;1.27;;;;;;;;;;4980873;28;20042;-70
2021/09/28 11:16:57;;;;;;;8.48;1.23;;;19.50;99.90;;;;;;4980088;28;20044;-73
2021/09/28 11:19:23;;;;;;;7.90;1.25;;;19.90;99.90;;;;;;4979739;28;20490;-68
2021/09/28 11:21:49;;;;;;;8.48;1.85;;;;;;;;;;4980380;28;20038;-67
2021/09/28 11:24:15;;;;;;;8.15;1.38;;;;;;;;;;4979675;28;20520;-74
2021/09/28 11:26:42;;;;;;;5.75;1.38;;;20.20;99.90;;;;;;4976348;28;20092;-73
2021/09/28 11:29:08;;;;;;;9.35;1.67;;;19.60;99.90;;;;;;4978020;28;20583;-73
2021/09/28 11:31:33;;;;;;;10.25;1.60;;;19.90;99.90;;;;;;4978770;28;20039;-73
2021/09/28 11:34:00;;;;;;;7.47;1.05;;;;;;;;;;4978276;28;20042;-72
2021/09/28 11:36:26;;;;;;;9.27;1.45;;;;;;;;;;4977011;28;20089;-73
2021/09/28 11:38:52;;;;;;;11.38;1.58;;;;;;;;;;4977401;28;20081;-69
2021/09/28 11:41:18;;;;;;;7.05;1.17;;;;;;;;;;4979927;28;20034;-70
2021/09/28 11:43:44;;;;;;;11.20;1.10;;;;;;;;;;4978851;28;20038;-69
2021/09/28 11:46:10;;;;;;;7.88;1.15;;;;;;;;;;4980222;28;20034;-69
2021/09/28 11:48:36;;;;;;;28.00;2.33;;;;;;;;;;4981618;28;20160;-69
2021/09/28 11:51:02;;;;;;;11.55;1.80;;;;;;;;;;4983613;28;20034;-69
2021/09/28 11:53:27;;;;;;;9.50;1.40;;;19.60;99.90;;;;;;4982752;28;20026;-69
2021/09/28 11:55:53;;;;;;;5.03;1.35;;;20.10;99.90;;;;;;4982752;28;20038;-69
2021/09/28 11:58:18;;;;;;;5.82;1.45;;;20.10;99.90;;;;;;4983602;28;20048;-69
2021/09/28 12:00:44;;;;;;;6.55;1.08;;;20.70;99.90;;;;;;4983995;28;20038;-69
2021/09/28 12:03:10;;;;;;;7.80;1.75;;;20.20;99.90;;;;;;4974249;28;20038;-69
2021/09/28 12:05:45;;;;;;;7.75;1.38;;;20.70;99.90;;;;;;4979073;28;20125;-69
2021/09/28 12:08:10;;;;;;;;;;;20.70;99.90;;;;;;4981179;28;20038;-69
2021/09/28 12:10:36;;;;;;;5.97;1.02;;;20.40;99.90;;;;;;4980178;28;19968;-68
2021/09/28 12:13:01;;;;;;;7.10;1.88;;;20.50;99.90;;;;;;4980185;28;20534;-69
2021/09/28 12:15:27;;;;;;;8.18;1.30;;;19.40;99.90;;;;;;4980116;28;20038;-70
2021/09/28 12:17:56;;;;;;;6.22;1.10;;;19.80;99.90;;;;;;4981921;28;20884;-70
2021/09/28 12:20:22;;;;;;;7.80;1.70;;;20.20;99.90;;;;;;4976753;28;20038;-70
2021/09/28 12:22:47;;;;;;;7.25;1.08;;;20.60;99.90;;;;;;4978198;28;20104;-70
2021/09/28 12:25:13;;;;;;;7.72;1.10;;;20.70;98.90;;;;;;4974036;28;20030;-70
2021/09/28 12:27:39;;;;;;;4.72;1.02;;;21.80;99.10;;;;;;4981950;28;20081;-70
2021/09/28 12:30:04;;;;;;;11.05;2.25;;;;;;;;;;4982216;28;20045;-70
2021/09/28 12:32:31;;;;;;;10.88;1.60;;;;;;;;;;4982346;28;20423;-70
2021/09/28 12:34:57;;;;;;;7.68;1.30;;;;;;;;;;4982483;28;20196;-70
2021/09/28 12:37:23;;;;;;;7.63;1.10;;;;;;;;;;4981594;28;20449;-70
2021/09/28 12:39:49;;;;;;;8.85;1.40;;;;;;;;;;4982054;28;20516;-70
2021/09/28 12:42:15;;;;;;;4.03;0.98;;;;;;;;;;4982371;28;20038;-70
2021/09/28 12:44:41;;;;;;;6.25;1.05;;;;;;;;;;4974611;28;20121;-70
2021/09/28 12:47:07;;;;;;;8.52;1.27;;;;;;;;;;4978863;28;20070;-70
2021/09/28 12:49:33;;;;;;;8.52;1.48;;;;;;;;;;4982073;28;20030;-70
2021/09/28 12:51:59;;;;;;;5.18;1.50;;;21.10;98.40;;;;;;4978430;28;20031;-70
2021/09/28 12:54:24;;;;;;;5.63;1.05;;;20.80;99.90;;;;;;4982506;28;20038;-69
2021/09/28 12:56:50;;;;;;;4.80;1.20;;;20.80;98.50;;;;;;4982283;28;20038;-70
2021/09/28 12:59:15;;;;;;;8.25;1.25;;;21.00;98.20;;;;;;4981612;28;20046;-71
2021/09/28 13:01:41;;;;;;;8.85;1.73;;;21.10;98.00;;;;;;4981847;28;20044;-70
2021/09/28 13:04:08;;;;;;;4.55;1.00;;;;;;;;;;4982566;28;20596;-71
2021/09/28 13:06:38;;;;;;;11.13;1.25;;;22.80;96.30;;;;;;4982423;28;20034;-71
2021/09/28 13:09:03;;;;;;;4.93;1.35;;;22.00;94.00;;;;;;4979466;28;20034;-71
2021/09/28 13:11:29;;;;;;;2.95;0.80;;;;;;;;;;4980851;28;20089;-71
2021/09/28 13:13:55;;;;;;;7.57;1.45;;;;;;;;;;4981162;28;20232;-71
2021/09/28 13:16:22;;;;;;;7.95;1.30;;;22.10;95.20;;;;;;4982027;28;20496;-71
2021/09/28 13:18:49;;;;;;;4.78;0.95;;;21.90;94.80;;;;;;4981420;28;20037;-70
2021/09/28 13:21:14;;;;;;;5.07;0.82;;;21.90;94.10;;;;;;4980902;28;20042;-69
2021/09/28 13:23:39;;;;;;;4.82;1.00;;;21.70;94.00;;;;;;4981950;28;20034;-69
2021/09/28 13:26:05;;;;;;;4.13;0.88;;;21.60;94.60;;;;;;4979104;28;20037;-68
2021/09/28 13:28:30;;;;;;;6.50;1.13;;;21.30;94.20;;;;;;4980048;28;20034;-68
2021/09/28 13:30:56;;;;;;;8.82;1.23;;;20.90;97.50;;;;;;4981958;28;20698;-70
2021/09/28 13:33:21;;;;;;;7.13;1.25;;;21.30;96.00;;;;;;4979776;28;20109;-70
2021/09/28 13:35:47;;;;;;;6.13;1.00;;;21.70;94.80;;;;;;4982052;28;20104;-69
2021/09/28 13:38:12;;;;;;;12.70;1.45;;;22.00;94.70;;;;;;4980358;28;20686;-68
2021/09/28 13:40:38;;;;;;;4.32;1.20;;;21.20;96.20;;;;;;4980997;28;20053;-68
2021/09/28 13:43:03;;;;;;;2.17;0.95;;;21.20;96.00;;;;;;4981811;28;20038;-69
2021/09/28 13:45:30;;;;;;;8.48;1.20;;;;;;;;;;4979294;28;20038;-69
2021/09/28 13:47:56;;;;;;;5.88;0.98;;;;;;;;;;4979488;28;20042;-68
2021/09/28 13:50:22;;;;;;;5.25;0.90;;;;;;;;;;4981126;28;20120;-68